Collinsville, Mississippi
Current Conditions -  °F | °C
As of 12:04 PM on Sunday 21 Dec 2014 (Local Time) from KMEI Reporting Station
Overcast Overcast  
Wind Chill: 50°   Ceiling: 1000
Heat Index: 50°   Visibility: 10mi
Dew Point: 44°   Wind: 0mph
Humidity: 80%   Direction: NA
Pressure: 30.11"   Gusts: NA
Location:  32.5°N, 88.85°W
Report Text: KMEI 211804Z 00000KT 10SM OVC010 10/07 A3011 RMK AO2 T01000067
Loading
Personal Weather Stations






























Interactive Weather Map New forecast layout! Learn more

10-Day Weather Forecast

Advertisements
Track Severe Weather on mobile